Time;durP1;ratioP1;P1;durP2;ratioP2;P2;SDS_P1;SDS_P2;PMS_P1;PMS_P2;Temp;Humidity;BMP_temperature;BMP_pressure;BME280_temperature;BME280_humidity;BME280_pressure;Samples;Min_cycle;Max_cycle;Signal;HPM_P1;HPM_P2
2023/03/24 00:02:05;;;;;;;7.77;7.60;;;21.50;58.80;;;;;;5031911;28;20449;-63
2023/03/24 00:04:33;;;;;;;7.40;7.30;;;21.50;58.80;;;;;;5017390;28;20477;-62
2023/03/24 00:07:02;;;;;;;7.80;7.60;;;21.50;58.80;;;;;;5031939;28;20958;-62
2023/03/24 00:09:29;;;;;;;8.10;7.90;;;21.50;58.80;;;;;;5031680;28;20465;-61
2023/03/24 00:11:57;;;;;;;8.27;7.90;;;21.50;58.90;;;;;;5031636;28;20536;-62
2023/03/24 00:14:24;;;;;;;7.00;6.90;;;21.40;58.90;;;;;;5031857;28;20445;-62
2023/03/24 00:16:53;;;;;;;7.70;7.60;;;21.40;58.90;;;;;;5031751;28;20887;-62
2023/03/24 00:19:21;;;;;;;7.80;7.60;;;21.40;58.90;;;;;;5031338;28;20982;-62
2023/03/24 00:21:48;;;;;;;7.50;7.40;;;21.40;59.00;;;;;;5031637;28;20946;-62
2023/03/24 00:24:15;;;;;;;7.50;7.30;;;21.40;59.50;;;;;;5031911;28;20460;-63
2023/03/24 00:26:42;;;;;;;7.97;7.77;;;21.40;59.00;;;;;;5031553;28;20855;-62
2023/03/24 00:29:12;;;;;;;7.90;7.70;;;21.40;59.10;;;;;;5031300;28;20871;-63
2023/03/24 00:31:39;;;;;;;7.80;7.60;;;21.40;59.10;;;;;;5031640;28;20507;-63
2023/03/24 00:34:09;;;;;;;7.77;7.57;;;21.30;59.10;;;;;;5031486;28;20449;-62
2023/03/24 00:36:37;;;;;;;7.50;7.40;;;21.30;59.10;;;;;;5031516;28;20841;-61
2023/03/24 00:39:05;;;;;;;7.50;7.30;;;21.30;59.10;;;;;;5021739;28;20880;-61
2023/03/24 00:41:32;;;;;;;8.57;8.37;;;21.30;59.10;;;;;;5031299;28;20445;-61
2023/03/24 00:44:02;;;;;;;7.97;7.77;;;21.30;59.10;;;;;;5031440;28;20499;-63
2023/03/24 00:46:29;;;;;;;8.10;7.90;;;21.30;59.10;;;;;;5031451;28;20445;-62
2023/03/24 00:49:00;;;;;;;7.60;7.50;;;21.30;59.10;;;;;;5032679;28;20499;-61
2023/03/24 00:51:30;;;;;;;7.70;7.50;;;21.30;59.20;;;;;;5038045;28;20460;-63
2023/03/24 00:53:58;;;;;;;8.23;8.03;;;21.30;59.30;;;;;;5037748;28;20815;-62
2023/03/24 00:56:26;;;;;;;7.93;7.73;;;21.20;59.20;;;;;;5037905;28;20533;-63
2023/03/24 00:58:56;;;;;;;7.40;7.30;;;21.20;59.20;;;;;;5037417;28;20516;-62
2023/03/24 01:01:24;;;;;;;7.33;7.13;;;21.20;59.20;;;;;;5037840;28;20453;-62
2023/03/24 01:03:51;;;;;;;7.70;7.60;;;21.20;59.20;;;;;;5037825;28;20449;-62
2023/03/24 01:06:21;;;;;;;7.47;7.37;;;21.20;59.30;;;;;;5037695;28;20515;-62
2023/03/24 01:08:52;;;;;;;7.87;7.67;;;21.20;59.30;;;;;;5037602;28;20465;-63
2023/03/24 01:11:21;;;;;;;7.47;7.27;;;21.20;59.40;;;;;;5037732;28;20468;-62
2023/03/24 01:13:48;;;;;;;8.73;8.27;;;21.20;59.30;;;;;;5037504;28;20523;-63
2023/03/24 01:16:16;;;;;;;7.50;7.40;;;21.20;59.30;;;;;;5037900;28;20448;-62
2023/03/24 01:18:43;;;;;;;7.30;7.20;;;21.20;59.40;;;;;;5037225;28;20879;-62
2023/03/24 01:21:11;;;;;;;7.77;7.57;;;21.20;59.40;;;;;;5037579;28;20468;-63
2023/03/24 01:23:40;;;;;;;7.97;7.77;;;21.20;59.40;;;;;;5034186;28;20946;-62
2023/03/24 01:26:10;;;;;;;7.93;7.73;;;21.20;59.30;;;;;;5037693;28;20483;-63
2023/03/24 01:28:39;;;;;;;7.50;7.37;;;21.20;59.40;;;;;;5037403;28;20460;-62
2023/03/24 01:31:08;;;;;;;7.10;7.00;;;21.20;59.40;;;;;;5037146;28;20526;-62
2023/03/24 01:33:36;;;;;;;8.33;7.93;;;21.20;59.40;;;;;;5037609;28;20453;-61
2023/03/24 01:36:04;;;;;;;7.30;7.10;;;21.20;59.50;;;;;;5037773;28;20958;-61
2023/03/24 01:38:31;;;;;;;7.30;7.20;;;21.10;59.40;;;;;;5036783;28;20522;-61
2023/03/24 01:40:59;;;;;;;6.70;6.60;;;21.20;59.50;;;;;;5037402;28;20539;-62
2023/03/24 01:43:30;;;;;;;7.43;7.23;;;21.20;59.50;;;;;;5037767;28;20453;-62
2023/03/24 01:46:02;;;;;;;6.90;6.80;;;21.10;59.40;;;;;;5037300;28;20543;-62
2023/03/24 01:48:35;;;;;;;7.10;7.00;;;21.10;59.40;;;;;;5037413;28;20445;-63
2023/03/24 01:51:07;;;;;;;7.00;6.90;;;21.10;59.40;;;;;;5037403;28;20465;-63
2023/03/24 01:53:36;;;;;;;7.73;7.53;;;21.10;59.40;;;;;;5036775;28;20502;-63
2023/03/24 01:56:07;;;;;;;7.50;7.30;;;21.10;59.50;;;;;;5035547;28;21023;-61
2023/03/24 01:58:37;;;;;;;7.30;7.20;;;21.10;59.50;;;;;;5036105;28;20469;-63
2023/03/24 02:01:05;;;;;;;7.33;7.23;;;21.10;59.50;;;;;;5035368;28;20527;-62
2023/03/24 02:03:37;;;;;;;8.33;8.13;;;21.10;59.50;;;;;;5034539;28;20540;-61
2023/03/24 02:06:07;;;;;;;7.50;7.40;;;21.00;59.40;;;;;;5034245;28;20511;-62
2023/03/24 02:08:38;;;;;;;8.07;7.77;;;21.00;59.50;;;;;;5033858;28;20457;-61
2023/03/24 02:11:06;;;;;;;6.60;6.50;;;21.00;59.40;;;;;;5033763;28;20985;-62
2023/03/24 02:13:35;;;;;;;6.27;6.17;;;21.00;59.40;;;;;;5034063;28;20871;-62
2023/03/24 02:16:18;;;;;;;6.70;6.40;;;21.00;59.40;;;;;;5033978;28;20445;-61
2023/03/24 02:18:56;;;;;;;6.50;6.40;;;21.00;59.40;;;;;;5033653;28;20486;-62
2023/03/24 02:21:52;;;;;;;6.67;6.57;;;21.00;59.40;;;;;;5033788;28;20449;-62
2023/03/24 02:24:45;;;;;;;6.60;6.50;;;21.00;59.50;;;;;;5034141;28;20437;-62
2023/03/24 02:27:35;;;;;;;6.70;6.60;;;21.00;59.50;;;;;;5020096;28;20520;-62
2023/03/24 02:30:22;;;;;;;7.00;6.90;;;21.00;59.60;;;;;;5033353;28;20499;-62
2023/03/24 02:33:23;;;;;;;7.00;6.90;;;20.90;59.60;;;;;;5033921;28;20495;-62
2023/03/24 02:36:25;;;;;;;8.00;7.80;;;20.90;59.70;;;;;;5033443;28;20503;-62
2023/03/24 02:39:35;;;;;;;7.60;7.47;;;20.90;59.70;;;;;;5033396;28;20815;-62
2023/03/24 02:42:11;;;;;;;7.60;7.50;;;20.90;59.70;;;;;;5008695;28;20449;-62
2023/03/24 02:44:46;;;;;;;7.60;7.40;;;21.00;59.80;;;;;;5023555;28;20445;-62
2023/03/24 02:47:20;;;;;;;7.43;7.33;;;20.90;59.80;;;;;;5033341;28;20448;-63
2023/03/24 02:49:51;;;;;;;7.80;7.60;;;20.90;59.80;;;;;;5033377;28;20469;-62
2023/03/24 02:52:23;;;;;;;7.13;7.03;;;21.00;59.90;;;;;;5033362;28;20457;-62
2023/03/24 02:54:54;;;;;;;7.40;7.20;;;20.90;59.80;;;;;;5033242;28;20457;-62
2023/03/24 02:57:30;;;;;;;7.83;7.63;;;21.00;59.80;;;;;;5017713;28;20446;-62
2023/03/24 03:00:00;;;;;;;7.33;7.23;;;21.00;59.80;;;;;;5032651;28;20481;-63
2023/03/24 03:02:32;;;;;;;7.63;7.43;;;21.00;59.80;;;;;;5033430;28;20509;-61
2023/03/24 03:05:06;;;;;;;7.47;7.37;;;21.00;59.80;;;;;;5033097;28;20962;-63
2023/03/24 03:07:36;;;;;;;7.40;7.30;;;21.00;59.80;;;;;;5033068;28;20519;-62
2023/03/24 03:10:07;;;;;;;7.83;7.63;;;21.00;59.80;;;;;;5032743;28;20479;-62
2023/03/24 03:12:38;;;;;;;7.80;7.60;;;21.00;59.80;;;;;;5031787;28;20507;-63
2023/03/24 03:15:10;;;;;;;7.63;7.43;;;20.90;59.80;;;;;;5032782;28;20875;-62
2023/03/24 03:17:41;;;;;;;7.50;7.40;;;21.00;59.80;;;;;;5018711;28;20446;-62
2023/03/24 03:20:13;;;;;;;8.63;8.43;;;21.00;59.80;;;;;;5032243;28;20485;-62
2023/03/24 03:22:44;;;;;;;8.37;8.17;;;20.90;59.70;;;;;;5032548;28;20529;-61
2023/03/24 03:25:14;;;;;;;8.50;8.30;;;20.90;59.80;;;;;;5032785;28;20511;-63
2023/03/24 03:27:45;;;;;;;8.60;8.40;;;20.90;59.70;;;;;;5032637;28;20452;-62
2023/03/24 03:30:18;;;;;;;8.27;8.07;;;20.90;59.80;;;;;;5032582;28;20993;-62
2023/03/24 03:32:53;;;;;;;8.90;8.70;;;20.90;59.80;;;;;;5032670;28;20445;-62
2023/03/24 03:35:25;;;;;;;8.50;8.30;;;20.90;59.80;;;;;;5032557;28;20479;-62
2023/03/24 03:37:59;;;;;;;8.20;8.00;;;20.90;59.80;;;;;;5032599;28;20499;-63
2023/03/24 03:40:32;;;;;;;7.87;7.67;;;20.90;59.80;;;;;;5032199;28;20900;-62
2023/03/24 03:43:01;;;;;;;8.00;7.80;;;20.90;59.80;;;;;;5032374;28;20452;-62
2023/03/24 03:45:29;;;;;;;8.00;7.80;;;20.90;59.80;;;;;;5032375;28;20445;-62
2023/03/24 03:47:56;;;;;;;8.60;8.40;;;20.90;59.80;;;;;;5032315;28;20512;-62
2023/03/24 03:50:23;;;;;;;7.67;7.57;;;20.90;59.80;;;;;;5031522;28;20472;-61
2023/03/24 03:52:51;;;;;;;7.60;7.40;;;20.90;59.80;;;;;;5032484;28;20504;-62
2023/03/24 03:55:18;;;;;;;8.37;8.17;;;20.90;59.80;;;;;;5032171;28;20453;-62
2023/03/24 03:57:46;;;;;;;8.20;8.00;;;20.90;59.80;;;;;;5031957;28;20447;-61
2023/03/24 04:00:21;;;;;;;8.20;8.10;;;20.90;59.80;;;;;;5031807;28;20546;-62
2023/03/24 04:03:04;;;;;;;7.77;7.67;;;20.90;59.70;;;;;;5032132;28;20795;-62
2023/03/24 04:05:35;;;;;;;8.30;8.10;;;20.90;59.70;;;;;;5032036;28;20452;-58
2023/03/24 04:08:18;;;;;;;8.30;8.10;;;20.90;59.80;;;;;;5031681;28;21036;-62
2023/03/24 04:11:27;;;;;;;7.60;7.50;;;20.90;59.80;;;;;;5030429;28;20826;-62
2023/03/24 04:14:08;;;;;;;8.10;7.90;;;20.80;59.70;;;;;;5012419;28;20516;-62
2023/03/24 04:16:51;;;;;;;8.70;8.30;;;20.80;59.70;;;;;;5026925;28;20516;-61
2023/03/24 04:19:31;;;;;;;8.30;8.10;;;20.80;59.80;;;;;;5031094;28;20492;-63
2023/03/24 04:22:11;;;;;;;8.70;8.50;;;20.80;59.80;;;;;;5031812;28;20532;-62
2023/03/24 04:24:44;;;;;;;8.40;8.23;;;20.80;59.80;;;;;;5031599;28;20836;-61
2023/03/24 04:27:20;;;;;;;8.40;8.20;;;20.80;59.80;;;;;;5031053;28;20510;-63
2023/03/24 04:29:54;;;;;;;8.50;8.30;;;20.80;59.80;;;;;;5027181;28;20457;-61
2023/03/24 04:32:31;;;;;;;7.93;7.80;;;20.80;59.80;;;;;;5031559;28;20503;-63
2023/03/24 04:35:02;;;;;;;8.40;8.20;;;20.80;59.80;;;;;;5031672;28;20476;-62
2023/03/24 04:37:36;;;;;;;9.10;8.90;;;20.80;59.80;;;;;;5031481;28;20475;-63
2023/03/24 04:40:06;;;;;;;8.60;8.40;;;20.80;59.90;;;;;;5031027;28;20854;-63
2023/03/24 04:42:36;;;;;;;8.90;8.40;;;20.80;59.90;;;;;;5031677;28;20536;-63
2023/03/24 04:45:04;;;;;;;9.10;8.90;;;20.80;59.90;;;;;;5031359;28;20979;-63
2023/03/24 04:47:37;;;;;;;9.47;9.27;;;20.80;59.90;;;;;;5031361;28;20872;-63
2023/03/24 04:50:08;;;;;;;9.70;9.50;;;20.80;60.00;;;;;;5032032;28;20469;-61
2023/03/24 04:52:35;;;;;;;10.30;10.00;;;20.70;59.90;;;;;;5031536;28;20510;-62
2023/03/24 04:55:03;;;;;;;9.60;9.40;;;20.80;60.00;;;;;;5031215;28;20487;-62
2023/03/24 04:57:30;;;;;;;9.73;9.53;;;20.70;60.00;;;;;;5030746;28;20540;-62
2023/03/24 04:59:56;;;;;;;9.60;9.40;;;20.70;59.90;;;;;;5030984;28;20567;-62
2023/03/24 05:02:23;;;;;;;9.50;9.30;;;20.70;59.90;;;;;;5031352;28;20525;-63
2023/03/24 05:04:52;;;;;;;9.70;9.50;;;20.70;60.00;;;;;;5031424;28;20536;-61
2023/03/24 05:07:20;;;;;;;5.32;5.22;;;20.70;59.90;;;;;;5024573;28;20447;-62
2023/03/24 05:09:47;;;;;;;7.27;7.13;;;20.80;60.40;;;;;;5031252;28;20214;-61
2023/03/24 05:12:13;;;;;;;7.53;7.33;;;20.80;61.30;;;;;;5031576;28;20528;-63
2023/03/24 05:14:40;;;;;;;7.93;7.73;;;20.90;62.10;;;;;;5031638;28;20520;-61
2023/03/24 05:17:07;;;;;;;7.60;7.30;;;21.00;62.00;;;;;;5031337;28;20532;-62
2023/03/24 05:19:35;;;;;;;8.00;7.67;;;21.00;62.00;;;;;;5030771;28;20555;-63
2023/03/24 05:22:03;;;;;;;8.30;8.00;;;21.00;62.30;;;;;;5031365;28;20502;-62
2023/03/24 05:24:30;;;;;;;9.87;9.20;;;21.00;63.90;;;;;;5031361;28;20877;-62
2023/03/24 05:26:57;;;;;;;10.53;9.73;;;21.10;65.50;;;;;;5031394;28;20528;-61
2023/03/24 05:29:24;;;;;;;10.20;9.20;;;21.00;69.40;;;;;;5030942;28;20572;-62
2023/03/24 05:31:50;;;;;;;10.60;7.40;;;21.00;72.40;;;;;;5031449;28;20855;-62
2023/03/24 05:34:17;;;;;;;11.50;8.90;;;21.00;73.70;;;;;;5032036;28;20487;-63
2023/03/24 05:36:44;;;;;;;10.27;9.30;;;21.10;79.00;;;;;;5033606;28;20536;-63
2023/03/24 05:39:12;;;;;;;8.70;8.00;;;21.10;81.00;;;;;;5034519;28;20444;-60
2023/03/24 05:41:39;;;;;;;9.53;8.77;;;21.20;84.20;;;;;;5034852;28;20580;-60
2023/03/24 05:44:06;;;;;;;10.83;8.37;;;21.20;83.80;;;;;;5035092;28;20491;-60
2023/03/24 05:46:33;;;;;;;10.00;9.17;;;21.30;84.20;;;;;;5034627;28;21043;-61
2023/03/24 05:49:03;;;;;;;9.30;8.50;;;21.30;83.50;;;;;;5034489;28;20445;-61
2023/03/24 05:51:30;;;;;;;10.10;9.07;;;21.40;83.00;;;;;;5035081;28;20823;-60
2023/03/24 05:53:57;;;;;;;9.13;8.40;;;21.50;82.80;;;;;;5034791;28;21038;-62
2023/03/24 05:56:27;;;;;;;9.30;8.50;;;21.50;82.30;;;;;;5034264;28;20531;-61
2023/03/24 05:58:54;;;;;;;11.43;9.30;;;21.60;82.00;;;;;;5035692;28;20456;-59
2023/03/24 06:01:21;;;;;;;9.00;8.20;;;21.60;81.00;;;;;;5043399;28;20511;-58
2023/03/24 06:03:48;;;;;;;10.18;7.70;;;21.60;80.20;;;;;;5033041;28;20548;-61
2023/03/24 06:06:15;;;;;;;9.93;9.03;;;21.50;81.60;;;;;;5034642;28;20241;-61
2023/03/24 06:08:43;;;;;;;9.80;9.10;;;21.50;79.60;;;;;;5034327;28;20445;-59
2023/03/24 06:11:11;;;;;;;11.03;10.00;;;21.60;78.20;;;;;;5034504;28;20547;-60
2023/03/24 06:13:39;;;;;;;11.63;10.57;;;21.50;77.20;;;;;;5034478;28;20961;-58
2023/03/24 06:16:08;;;;;;;9.77;9.17;;;21.50;76.40;;;;;;5034248;28;20527;-61
2023/03/24 06:18:35;;;;;;;9.17;8.33;;;21.50;76.00;;;;;;5034088;28;20485;-60
2023/03/24 06:21:02;;;;;;;9.83;9.13;;;21.40;75.80;;;;;;5033891;28;20580;-62
2023/03/24 06:23:29;;;;;;;9.20;8.50;;;21.40;75.00;;;;;;5034189;28;20449;-61
2023/03/24 06:26:00;;;;;;;9.10;8.50;;;21.30;74.60;;;;;;5034249;28;20536;-61
2023/03/24 06:28:29;;;;;;;10.27;9.37;;;21.30;75.10;;;;;;5033836;28;20507;-60
2023/03/24 06:30:58;;;;;;;9.17;8.43;;;21.20;74.70;;;;;;5033880;28;20469;-60
2023/03/24 06:33:25;;;;;;;10.13;9.10;;;21.20;73.60;;;;;;5033933;28;20468;-60
2023/03/24 06:35:52;;;;;;;9.37;9.07;;;21.20;73.40;;;;;;5033952;28;20449;-62
2023/03/24 06:38:19;;;;;;;9.63;9.23;;;21.20;73.20;;;;;;5033662;28;20876;-62
2023/03/24 06:40:46;;;;;;;10.07;9.23;;;21.10;72.80;;;;;;5033771;28;20489;-60
2023/03/24 06:43:13;;;;;;;9.90;9.40;;;21.10;72.60;;;;;;5033896;28;20479;-60
2023/03/24 06:45:40;;;;;;;8.87;8.40;;;21.10;72.50;;;;;;5033719;28;20527;-61
2023/03/24 06:48:08;;;;;;;9.73;9.13;;;21.10;72.20;;;;;;5033376;28;20527;-60
2023/03/24 06:50:35;;;;;;;8.73;8.10;;;21.00;71.80;;;;;;5033626;28;20989;-61
2023/03/24 06:53:03;;;;;;;8.63;8.23;;;21.00;71.60;;;;;;5033921;28;20781;-61
2023/03/24 06:55:30;;;;;;;9.10;8.50;;;21.00;71.40;;;;;;5033542;28;20477;-60
2023/03/24 06:57:56;;;;;;;9.30;8.90;;;20.90;71.10;;;;;;5033306;28;20449;-60
2023/03/24 07:00:24;;;;;;;8.80;8.50;;;20.90;70.80;;;;;;5033150;28;20572;-59
2023/03/24 07:02:52;;;;;;;8.60;8.00;;;20.90;70.60;;;;;;5033600;28;20456;-60
2023/03/24 07:05:20;;;;;;;8.67;8.27;;;20.90;70.40;;;;;;5033331;28;20544;-62
2023/03/24 07:07:47;;;;;;;9.13;8.47;;;20.90;70.30;;;;;;5033088;28;20453;-59
2023/03/24 07:10:14;;;;;;;9.10;8.50;;;20.80;70.00;;;;;;5033216;28;20536;-62
2023/03/24 07:12:41;;;;;;;8.80;8.50;;;20.90;69.90;;;;;;5033260;28;20878;-57
2023/03/24 07:15:09;;;;;;;8.70;8.23;;;20.90;69.80;;;;;;5033192;28;20532;-62
2023/03/24 07:17:36;;;;;;;9.13;8.67;;;20.80;69.60;;;;;;5033033;28;20529;-62
2023/03/24 07:20:07;;;;;;;8.37;8.10;;;20.80;69.40;;;;;;5032886;28;20493;-61
2023/03/24 07:22:35;;;;;;;9.20;8.73;;;20.80;69.20;;;;;;5033068;28;20449;-61
2023/03/24 07:25:03;;;;;;;8.90;8.30;;;20.80;69.00;;;;;;5033207;28;20879;-58
2023/03/24 07:27:31;;;;;;;9.03;8.43;;;20.80;68.90;;;;;;5032689;28;20941;-61
2023/03/24 07:29:58;;;;;;;8.50;8.20;;;20.80;68.80;;;;;;5032667;28;20469;-58
2023/03/24 07:32:27;;;;;;;8.17;7.77;;;20.80;68.60;;;;;;5032840;28;20536;-60
2023/03/24 07:34:54;;;;;;;8.37;7.97;;;20.70;68.30;;;;;;5032793;28;20455;-57
2023/03/24 07:37:21;;;;;;;8.27;8.07;;;20.70;68.20;;;;;;5032621;28;20537;-59
2023/03/24 07:39:49;;;;;;;8.83;8.53;;;20.70;68.10;;;;;;5032793;28;20472;-57
2023/03/24 07:42:16;;;;;;;8.53;8.23;;;20.70;67.90;;;;;;5032543;28;20480;-60
2023/03/24 07:44:43;;;;;;;9.00;8.50;;;20.70;67.70;;;;;;5032534;28;20873;-59
2023/03/24 07:47:11;;;;;;;9.53;9.00;;;20.70;67.50;;;;;;5032448;28;20445;-60
2023/03/24 07:49:38;;;;;;;9.70;9.40;;;20.70;67.40;;;;;;5032413;28;20468;-60
2023/03/24 07:52:05;;;;;;;9.40;9.10;;;20.70;67.30;;;;;;5032534;28;20473;-58
2023/03/24 07:54:33;;;;;;;9.60;9.20;;;20.70;67.10;;;;;;5032483;28;20815;-62
2023/03/24 07:57:01;;;;;;;9.10;8.70;;;20.70;67.00;;;;;;5032205;28;20449;-62
2023/03/24 07:59:28;;;;;;;10.10;9.50;;;20.60;66.80;;;;;;5032006;28;20508;-59
2023/03/24 08:01:55;;;;;;;9.17;8.67;;;20.60;66.60;;;;;;5032382;28;20567;-59
2023/03/24 08:04:22;;;;;;;8.93;8.67;;;20.60;66.60;;;;;;5032370;28;20535;-59
2023/03/24 08:06:48;;;;;;;8.47;8.27;;;20.60;66.50;;;;;;5032399;28;20696;-61
2023/03/24 08:09:16;;;;;;;9.17;8.77;;;20.60;66.40;;;;;;5031979;28;20541;-60
2023/03/24 08:11:42;;;;;;;8.83;8.63;;;20.60;66.20;;;;;;5032293;28;20487;-61
2023/03/24 08:14:11;;;;;;;8.27;7.97;;;20.60;66.10;;;;;;5032337;28;20537;-60
2023/03/24 08:16:38;;;;;;;9.00;8.70;;;20.60;66.00;;;;;;5032197;28;20536;-59
2023/03/24 08:19:05;;;;;;;9.40;9.00;;;20.60;66.00;;;;;;5031893;28;20441;-59
2023/03/24 08:21:32;;;;;;;8.40;8.10;;;20.50;65.90;;;;;;5032211;28;20914;-61
2023/03/24 08:23:59;;;;;;;8.73;8.33;;;20.60;65.90;;;;;;5032177;28;20540;-59
2023/03/24 08:26:33;;;;;;;8.87;8.57;;;20.50;65.70;;;;;;5031983;28;20532;-60
2023/03/24 08:29:00;;;;;;;8.53;8.30;;;20.50;65.60;;;;;;5031815;28;20444;-60
2023/03/24 08:31:33;;;;;;;7.90;7.80;;;20.50;65.50;;;;;;5032010;28;21019;-61
2023/03/24 08:34:00;;;;;;;9.20;8.90;;;20.60;65.50;;;;;;5032100;28;21009;-59
2023/03/24 08:36:27;;;;;;;8.90;8.60;;;20.60;65.40;;;;;;5031999;28;20523;-58
2023/03/24 08:38:55;;;;;;;8.87;8.40;;;20.60;65.30;;;;;;5031625;28;20540;-60
2023/03/24 08:41:33;;;;;;;8.83;8.50;;;20.50;65.10;;;;;;5032060;28;20569;-58
2023/03/24 08:44:02;;;;;;;8.57;8.37;;;20.50;65.00;;;;;;5032048;28;20506;-60
2023/03/24 08:46:29;;;;;;;9.10;8.70;;;20.50;65.00;;;;;;5031895;28;20456;-60
2023/03/24 08:48:57;;;;;;;9.00;8.60;;;20.50;64.90;;;;;;5031791;28;20452;-58
2023/03/24 08:51:24;;;;;;;8.47;8.17;;;20.60;65.00;;;;;;5032145;28;20532;-57
2023/03/24 08:53:52;;;;;;;8.83;8.57;;;20.60;64.80;;;;;;5031985;28;20487;-59
2023/03/24 08:56:20;;;;;;;8.50;8.30;;;20.50;64.70;;;;;;5032014;28;20479;-58
2023/03/24 08:58:50;;;;;;;8.10;7.90;;;20.50;64.50;;;;;;5031799;28;20528;-59
2023/03/24 09:01:16;;;;;;;8.70;8.50;;;20.50;64.50;;;;;;5031621;28;20495;-60
2023/03/24 09:03:45;;;;;;;8.80;8.50;;;20.50;64.40;;;;;;5031860;28;20537;-60
2023/03/24 09:06:14;;;;;;;8.73;8.40;;;20.50;64.40;;;;;;5032128;28;20790;-59
2023/03/24 09:08:41;;;;;;;8.50;8.30;;;20.50;64.30;;;;;;5031612;28;20527;-58
2023/03/24 09:11:15;;;;;;;8.60;8.40;;;20.50;64.20;;;;;;5034572;28;20556;-59
2023/03/24 09:13:42;;;;;;;8.67;8.43;;;20.50;64.10;;;;;;5035983;28;20448;-58
2023/03/24 09:16:10;;;;;;;9.63;9.23;;;20.50;64.00;;;;;;5035754;28;20481;-59
2023/03/24 09:18:37;;;;;;;8.70;8.40;;;20.50;64.00;;;;;;5035548;28;20535;-59
2023/03/24 09:21:05;;;;;;;8.70;8.50;;;20.50;63.90;;;;;;5035441;28;20578;-59
2023/03/24 09:23:33;;;;;;;9.00;8.60;;;20.50;63.90;;;;;;5035714;28;20484;-60
2023/03/24 09:26:01;;;;;;;9.03;8.73;;;20.50;63.80;;;;;;5035574;28;20524;-60
2023/03/24 09:28:28;;;;;;;8.73;8.43;;;20.50;63.80;;;;;;5035528;28;20878;-57
2023/03/24 09:30:59;;;;;;;8.53;8.23;;;20.50;63.70;;;;;;5035331;28;20544;-59
2023/03/24 09:33:26;;;;;;;8.90;8.60;;;20.50;63.70;;;;;;5035647;28;20448;-60
2023/03/24 09:35:56;;;;;;;8.20;8.00;;;20.50;63.60;;;;;;5035656;28;20770;-58
2023/03/24 09:38:24;;;;;;;8.50;8.30;;;20.50;63.60;;;;;;5035133;28;20492;-59
2023/03/24 09:40:56;;;;;;;8.30;8.00;;;20.50;63.50;;;;;;5035330;28;20476;-59
2023/03/24 09:43:31;;;;;;;8.87;8.47;;;20.50;63.40;;;;;;5035340;28;20445;-57
2023/03/24 09:46:01;;;;;;;8.57;8.37;;;20.50;63.40;;;;;;5035374;28;20448;-59
2023/03/24 09:48:35;;;;;;;8.50;8.30;;;20.50;63.30;;;;;;5034873;28;20448;-60
2023/03/24 09:51:06;;;;;;;9.33;8.80;;;20.50;63.20;;;;;;5035316;28;20547;-59
2023/03/24 09:53:39;;;;;;;9.30;9.10;;;20.50;63.20;;;;;;5035427;28;20540;-59
2023/03/24 09:56:12;;;;;;;8.80;8.40;;;20.40;62.90;;;;;;5035119;28;20523;-59
2023/03/24 09:58:40;;;;;;;8.57;8.37;;;20.50;63.00;;;;;;5034913;28;20483;-60
2023/03/24 10:01:12;;;;;;;9.63;9.17;;;20.50;63.00;;;;;;5034758;28;20484;-59
2023/03/24 10:03:39;;;;;;;8.37;8.17;;;20.50;62.90;;;;;;5035280;28;20445;-59
2023/03/24 10:06:10;;;;;;;8.93;8.50;;;20.40;62.70;;;;;;5034958;28;20506;-59
2023/03/24 10:08:40;;;;;;;9.77;9.30;;;20.50;62.80;;;;;;5034901;28;20477;-60
2023/03/24 10:11:19;;;;;;;8.47;8.27;;;20.40;62.70;;;;;;5035001;28;20544;-60
2023/03/24 10:13:56;;;;;;;9.93;9.33;;;20.40;62.60;;;;;;5034956;28;20440;-57
2023/03/24 10:16:30;;;;;;;9.33;8.90;;;20.40;62.50;;;;;;5034955;28;20803;-58
2023/03/24 10:19:09;;;;;;;8.87;8.47;;;20.50;62.60;;;;;;5034635;28;20568;-58
2023/03/24 10:21:40;;;;;;;8.87;8.47;;;20.50;62.50;;;;;;5033956;28;20564;-59
2023/03/24 10:24:16;;;;;;;8.43;8.13;;;20.40;62.30;;;;;;5034413;28;20939;-58
2023/03/24 10:26:52;;;;;;;8.60;8.40;;;20.40;62.30;;;;;;5034548;28;20535;-57
2023/03/24 10:29:26;;;;;;;8.80;8.60;;;20.40;62.20;;;;;;5034385;28;20551;-56
2023/03/24 10:31:59;;;;;;;9.30;9.10;;;20.40;62.20;;;;;;5034499;28;20447;-59
2023/03/24 10:34:29;;;;;;;8.60;8.33;;;20.40;62.10;;;;;;5034334;28;20571;-59
2023/03/24 10:36:58;;;;;;;8.47;8.27;;;20.40;62.10;;;;;;5034249;28;20795;-60
2023/03/24 10:39:25;;;;;;;8.97;8.77;;;20.40;62.10;;;;;;5033977;28;20457;-57
2023/03/24 10:41:54;;;;;;;8.50;8.30;;;20.40;62.00;;;;;;5034149;28;20483;-59
2023/03/24 10:44:22;;;;;;;8.23;7.93;;;20.40;62.00;;;;;;5034390;28;20939;-58
2023/03/24 10:46:53;;;;;;;8.47;8.17;;;20.40;61.90;;;;;;5034053;28;20437;-59
2023/03/24 10:49:21;;;;;;;8.00;7.90;;;20.40;61.80;;;;;;5033726;28;20555;-58
2023/03/24 10:51:50;;;;;;;8.27;8.07;;;20.40;61.80;;;;;;5034219;28;20530;-58
2023/03/24 10:54:19;;;;;;;9.10;8.60;;;20.40;61.70;;;;;;5034002;28;20472;-59
2023/03/24 10:56:48;;;;;;;9.17;8.90;;;20.40;61.70;;;;;;5033596;28;20449;-58
2023/03/24 10:59:27;;;;;;;8.90;8.60;;;20.40;61.70;;;;;;5033532;28;20476;-58
2023/03/24 11:02:16;;;;;;;8.10;7.90;;;20.40;61.60;;;;;;5033536;28;20488;-57
2023/03/24 11:04:50;;;;;;;8.53;8.23;;;20.40;61.60;;;;;;5033731;28;20449;-60
2023/03/24 11:07:19;;;;;;;8.80;8.60;;;20.40;61.50;;;;;;5033848;28;20450;-58
2023/03/24 11:10:04;;;;;;;8.20;8.00;;;20.40;61.50;;;;;;5032913;28;20473;-57
2023/03/24 11:12:32;;;;;;;9.00;8.57;;;20.40;61.50;;;;;;5033106;28;20532;-54
2023/03/24 11:15:27;;;;;;;8.80;8.60;;;20.40;62.10;;;;;;5033181;28;20885;-59
2023/03/24 11:17:57;;;;;;;8.80;8.50;;;20.50;64.50;;;;;;5019938;28;20461;-52
2023/03/24 11:20:29;;;;;;;8.90;8.70;;;20.60;65.00;;;;;;5034006;28;20492;-55
2023/03/24 11:22:59;;;;;;;8.87;8.67;;;20.60;65.20;;;;;;5033755;28;20484;-61
2023/03/24 11:25:27;;;;;;;9.03;8.73;;;20.60;65.40;;;;;;5033073;28;20514;-56
2023/03/24 11:27:59;;;;;;;8.93;8.73;;;20.70;65.70;;;;;;5032793;28;20449;-60
2023/03/24 11:30:30;;;;;;;9.00;8.70;;;20.80;65.80;;;;;;5032726;28;20465;-57
2023/03/24 11:32:58;;;;;;;9.37;8.97;;;20.90;65.80;;;;;;5032156;28;20476;-57
2023/03/24 11:35:25;;;;;;;8.93;8.73;;;21.00;65.80;;;;;;5032425;28;20890;-50
2023/03/24 11:37:52;;;;;;;9.17;8.87;;;21.00;65.60;;;;;;5033189;28;20532;-57
2023/03/24 11:40:23;;;;;;;8.97;8.47;;;21.10;66.60;;;;;;5033440;28;20465;-61
2023/03/24 11:42:53;;;;;;;9.20;8.63;;;21.10;67.40;;;;;;5033712;28;20564;-57
2023/03/24 11:45:22;;;;;;;9.10;8.80;;;21.20;67.60;;;;;;5034155;28;20544;-56
2023/03/24 11:47:52;;;;;;;9.67;9.10;;;21.30;67.70;;;;;;5033760;28;20540;-57
2023/03/24 11:50:24;;;;;;;8.70;8.50;;;21.30;67.30;;;;;;5033634;28;20495;-58
2023/03/24 11:52:55;;;;;;;9.43;9.17;;;21.40;66.90;;;;;;5033984;28;20445;-58
2023/03/24 11:55:31;;;;;;;8.30;8.10;;;21.40;66.50;;;;;;5033509;28;20456;-56
2023/03/24 11:58:02;;;;;;;9.00;8.80;;;21.50;66.30;;;;;;5033173;28;20484;-58
2023/03/24 12:00:33;;;;;;;10.40;10.00;;;21.50;66.30;;;;;;5032118;28;20560;-57
2023/03/24 12:03:26;;;;;;;9.10;8.80;;;21.50;65.70;;;;;;5032527;28;20575;-55
2023/03/24 12:06:00;;;;;;;9.63;9.27;;;21.50;65.40;;;;;;4999335;28;20864;-60
2023/03/24 12:08:37;;;;;;;8.03;7.83;;;21.60;65.00;;;;;;5031604;28;20456;-59
2023/03/24 12:11:13;;;;;;;8.27;7.97;;;21.60;64.50;;;;;;5032123;28;20539;-54
2023/03/24 12:13:42;;;;;;;8.30;8.10;;;21.60;64.10;;;;;;5032150;28;21077;-54
2023/03/24 12:16:21;;;;;;;8.13;7.93;;;21.60;63.60;;;;;;5031769;28;20532;-57
2023/03/24 12:19:16;;;;;;;7.83;7.63;;;21.50;63.20;;;;;;5031886;28;20863;-53
2023/03/24 12:21:54;;;;;;;8.07;7.80;;;21.50;62.90;;;;;;5031855;28;21002;-56
2023/03/24 12:24:32;;;;;;;8.13;7.90;;;21.50;62.70;;;;;;5031874;28;20866;-57
2023/03/24 12:27:00;;;;;;;8.27;8.07;;;21.50;62.50;;;;;;5031882;28;20553;-55
2023/03/24 12:29:52;;;;;;;8.73;8.53;;;21.50;62.40;;;;;;5031653;28;20567;-55
2023/03/24 12:32:45;;;;;;;8.63;8.43;;;21.30;62.10;;;;;;5031923;28;20445;-56
2023/03/24 12:35:28;;;;;;;9.50;9.20;;;21.40;62.20;;;;;;5029484;28;20459;-57
2023/03/24 12:38:07;;;;;;;8.97;8.73;;;21.30;62.00;;;;;;5031624;28;20519;-52
2023/03/24 12:41:13;;;;;;;8.80;8.50;;;21.30;62.00;;;;;;5031776;28;20540;-58
2023/03/24 12:43:51;;;;;;;9.47;9.07;;;21.30;61.90;;;;;;4980104;28;20599;-57
2023/03/24 12:46:38;;;;;;;9.30;8.90;;;21.30;61.90;;;;;;5031471;28;20448;-55
2023/03/24 12:49:22;;;;;;;9.67;9.37;;;21.20;61.70;;;;;;5031462;28;20934;-55
2023/03/24 12:51:57;;;;;;;8.33;8.03;;;21.20;61.80;;;;;;5031558;28;20507;-59
2023/03/24 12:54:36;;;;;;;9.00;8.80;;;21.20;61.70;;;;;;5031679;28;20538;-58
2023/03/24 12:57:08;;;;;;;8.60;8.40;;;21.20;61.70;;;;;;5031518;28;20532;-55
2023/03/24 12:59:41;;;;;;;8.80;8.60;;;21.10;61.60;;;;;;5031335;28;20572;-55
2023/03/24 13:02:18;;;;;;;9.20;9.00;;;21.10;61.60;;;;;;5031461;28;20571;-55
2023/03/24 13:04:47;;;;;;;9.20;9.00;;;21.10;61.50;;;;;;5031488;28;20476;-56
2023/03/24 13:07:18;;;;;;;8.77;8.47;;;21.10;61.40;;;;;;5031337;28;20453;-56